Terminal Aerodrome Forecast
Issued by NWS

Home | Current Version | Previous Version | Text Only | Print | Product List | Glossary On
Versions: 1 2 3 4 5 6 7 8 9 10 11 12 13 14 15 16 17
000
FTUS43 KILX 030520
TAFDEC
TAF
KDEC 030520Z 0306/0406 02006KT P6SM SCT035 BKN150
     FM030900 03006KT P6SM SCT015 OVC030
     FM031600 03007KT P6SM BKN035
     FM032000 04007KT P6SM BKN045
     FM040200 03005KT P6SM SCT050=

USA.gov is the U.S. government's official web portal to all federal, state and local government web resources and services.